createdAt,value
2024-05-09T00:00:01.312Z,998.8418
2024-05-09T00:01:01.458Z,998.6782
2024-05-09T00:02:03.182Z,998.7921
2024-05-09T00:03:01.629Z,998.6641
2024-05-09T00:04:01.828Z,998.7424
2024-05-09T00:05:03.663Z,998.7567
2024-05-09T00:06:03.756Z,998.7282
2024-05-09T00:07:03.600Z,998.6356
2024-05-09T00:08:02.198Z,998.7281
2024-05-09T00:09:03.834Z,998.785
2024-05-09T00:10:04.147Z,998.6641
2024-05-09T00:11:03.147Z,998.5645
2024-05-09T00:12:01.763Z,998.842
2024-05-09T00:13:01.597Z,998.6071
2024-05-09T00:14:01.737Z,998.7495
2024-05-09T00:15:01.791Z,998.6925
2024-05-09T00:16:02.192Z,998.7282
2024-05-09T00:17:02.100Z,998.7282
2024-05-09T00:18:04.284Z,998.7567
2024-05-09T00:19:02.326Z,998.7282
2024-05-09T00:20:01.464Z,998.6714
2024-05-09T00:21:03.256Z,998.7851
2024-05-09T00:22:01.539Z,998.6358
2024-05-09T00:23:01.663Z,998.6572
2024-05-09T00:24:01.702Z,998.6857
2024-05-09T00:25:03.416Z,998.5435
2024-05-09T00:26:01.987Z,998.7498
2024-05-09T00:27:02.024Z,998.8708
2024-05-09T00:28:02.074Z,998.8779
2024-05-09T00:29:02.349Z,998.9134
2024-05-09T00:30:01.298Z,998.7498
2024-05-09T00:31:03.026Z,998.9134
2024-05-09T00:32:03.352Z,998.8779
2024-05-09T00:33:04.028Z,998.8495
2024-05-09T00:34:01.993Z,998.7003
2024-05-09T00:35:01.893Z,998.807
2024-05-09T00:36:01.960Z,998.9136
2024-05-09T00:37:03.651Z,998.686
2024-05-09T00:38:02.373Z,998.7501
2024-05-09T00:39:03.865Z,998.807
2024-05-09T00:40:01.345Z,998.807
2024-05-09T00:41:03.110Z,998.7004
2024-05-09T00:42:01.564Z,998.864
2024-05-09T00:43:01.649Z,998.7787
2024-05-09T00:44:01.810Z,998.7717
2024-05-09T00:45:01.847Z,998.8854
2024-05-09T00:46:03.536Z,998.7575
2024-05-09T00:47:02.092Z,998.6864
2024-05-09T00:48:02.435Z,998.7504
2024-05-09T00:49:03.992Z,998.6722
2024-05-09T00:50:01.496Z,998.7717
2024-05-09T00:51:01.461Z,998.6935
2024-05-09T00:52:03.190Z,998.8571
2024-05-09T00:53:01.649Z,998.7717
2024-05-09T00:54:03.369Z,998.8642
2024-05-09T00:55:03.437Z,998.8003
2024-05-09T00:56:01.965Z,998.8501
2024-05-09T00:57:03.642Z,998.843
2024-05-09T00:58:02.118Z,998.7292
2024-05-09T00:59:03.919Z,998.843
2024-05-09T01:00:01.306Z,998.7222
2024-05-09T01:01:01.449Z,998.7436
2024-05-09T01:02:01.678Z,998.6442
2024-05-09T01:03:01.934Z,998.7081
2024-05-09T01:04:01.808Z,998.7294
2024-05-09T01:05:02.026Z,998.9498
2024-05-09T01:06:03.639Z,998.687
2024-05-09T01:07:02.012Z,998.7226
2024-05-09T01:08:03.796Z,998.9286
2024-05-09T01:09:02.207Z,998.9001
2024-05-09T01:10:01.378Z,998.8433
2024-05-09T01:11:01.672Z,998.893
2024-05-09T01:12:01.687Z,998.7865
2024-05-09T01:13:01.624Z,998.9499
2024-05-09T01:14:03.373Z,998.7723
2024-05-09T01:15:01.849Z,998.8646
2024-05-09T01:16:01.912Z,998.8077
2024-05-09T01:17:02.048Z,998.8007
2024-05-09T01:18:02.443Z,998.9286
2024-05-09T01:19:03.949Z,998.7155
2024-05-09T01:20:01.379Z,998.9428
2024-05-09T01:21:01.463Z,998.751
2024-05-09T01:22:03.172Z,998.7439
2024-05-09T01:23:03.286Z,998.8932
2024-05-09T01:24:03.349Z,999.014
2024-05-09T01:25:01.814Z,998.9856
2024-05-09T01:26:03.594Z,998.9856
2024-05-09T01:27:02.023Z,998.7583
2024-05-09T01:28:02.160Z,998.7299
2024-05-09T01:29:02.253Z,998.872
2024-05-09T01:30:01.302Z,998.9005
2024-05-09T01:31:01.399Z,998.8365
2024-05-09T01:32:03.254Z,998.8437
2024-05-09T01:33:02.021Z,998.8437
2024-05-09T01:34:01.791Z,998.9076
2024-05-09T01:35:01.871Z,998.8863
2024-05-09T01:36:03.573Z,998.6591
2024-05-09T01:37:02.031Z,998.9433
2024-05-09T01:38:02.394Z,998.9433
2024-05-09T01:39:03.870Z,998.7658
2024-05-09T01:40:03.661Z,998.8439
2024-05-09T01:41:01.498Z,998.8439
2024-05-09T01:42:01.569Z,998.9575
2024-05-09T01:43:01.645Z,998.7587
2024-05-09T01:44:03.407Z,999.0711
2024-05-09T01:45:03.465Z,998.9221
2024-05-09T01:46:03.576Z,998.7021
2024-05-09T01:47:03.746Z,998.9293
2024-05-09T01:48:02.944Z,998.8299
2024-05-09T01:49:02.370Z,998.9293
2024-05-09T01:50:01.566Z,999.0002
2024-05-09T01:51:03.143Z,998.8866
2024-05-09T01:52:01.552Z,998.9859
2024-05-09T01:53:03.337Z,998.9575
2024-05-09T01:54:03.389Z,999.0427
2024-05-09T01:55:05.676Z,999.0143
2024-05-09T01:56:03.618Z,998.8156
2024-05-09T01:57:02.063Z,999.0995
2024-05-09T01:58:02.163Z,998.915
2024-05-09T01:59:02.337Z,998.8724
2024-05-09T02:00:01.352Z,999.0711
2024-05-09T02:01:01.490Z,998.9575
2024-05-09T02:02:01.796Z,998.9575
2024-05-09T02:03:03.472Z,998.8439
2024-05-09T02:04:03.632Z,998.9575
2024-05-09T02:05:02.033Z,998.9575
2024-05-09T02:06:02.107Z,998.9575
2024-05-09T02:07:03.710Z,998.9292
2024-05-09T02:08:02.238Z,998.9859
2024-05-09T02:09:02.262Z,998.9859
2024-05-09T02:10:01.379Z,998.9293
2024-05-09T02:11:01.580Z,998.8299
2024-05-09T02:12:01.658Z,998.9861
2024-05-09T02:13:01.654Z,998.915
2024-05-09T02:14:01.804Z,998.915
2024-05-09T02:15:01.874Z,998.8298
2024-05-09T02:16:03.579Z,998.8866
2024-05-09T02:17:02.088Z,998.9221
2024-05-09T02:18:04.165Z,999.0995
2024-05-09T02:19:02.420Z,998.9575
2024-05-09T02:20:01.472Z,999.0782
2024-05-09T02:21:03.350Z,999.0213
2024-05-09T02:22:03.207Z,998.9503
2024-05-09T02:23:03.391Z,999.0141
2024-05-09T02:24:03.355Z,999.0212
2024-05-09T02:25:03.489Z,999.0567
2024-05-09T02:26:03.642Z,998.9075
2024-05-09T02:27:02.065Z,998.872
2024-05-09T02:28:02.206Z,999.0852
2024-05-09T02:29:02.341Z,998.7869
2024-05-09T02:30:01.350Z,998.8225
2024-05-09T02:31:01.460Z,998.9504
2024-05-09T02:32:01.631Z,998.851
2024-05-09T02:33:03.443Z,998.8439
2024-05-09T02:34:02.074Z,998.851
2024-05-09T02:35:03.618Z,998.8083
2024-05-09T02:36:01.968Z,998.9716
2024-05-09T02:37:03.687Z,998.8012
2024-05-09T02:38:03.901Z,999.0284
2024-05-09T02:39:02.247Z,998.8365
2024-05-09T02:40:03.480Z,998.8365
2024-05-09T02:41:01.510Z,998.872
2024-05-09T02:42:01.547Z,998.8365
2024-05-09T02:43:03.314Z,998.7301
2024-05-09T02:44:01.784Z,998.7514
2024-05-09T02:45:03.490Z,998.7088
2024-05-09T02:46:03.580Z,998.652
2024-05-09T02:47:02.078Z,998.6591
2024-05-09T02:48:04.142Z,998.7231
2024-05-09T02:49:02.376Z,998.652
2024-05-09T02:50:03.633Z,998.8793
2024-05-09T02:51:03.256Z,998.7372
2024-05-09T02:52:03.193Z,998.6875
2024-05-09T02:53:01.669Z,998.6379
2024-05-09T02:54:01.746Z,998.8083
2024-05-09T02:55:01.858Z,998.9361
2024-05-09T02:56:03.597Z,998.6805
2024-05-09T02:57:03.685Z,998.7444
2024-05-09T02:58:03.791Z,998.7303
2024-05-09T02:59:02.274Z,998.7303
2024-05-09T03:00:01.311Z,998.8439
2024-05-09T03:01:01.469Z,998.631
2024-05-09T03:02:03.277Z,998.8441
2024-05-09T03:03:01.862Z,998.8867
2024-05-09T03:04:01.880Z,998.8371
2024-05-09T03:05:01.873Z,998.7378
2024-05-09T03:06:03.543Z,998.752
2024-05-09T03:07:02.063Z,998.8231
2024-05-09T03:08:02.239Z,998.894
2024-05-09T03:09:03.881Z,998.681
2024-05-09T03:10:01.297Z,998.6952
2024-05-09T03:11:03.084Z,998.6952
2024-05-09T03:12:01.626Z,998.9437
2024-05-09T03:13:03.316Z,998.6172
2024-05-09T03:14:01.773Z,998.6244
2024-05-09T03:15:03.486Z,998.8374
2024-05-09T03:16:01.907Z,998.6742
2024-05-09T03:17:03.827Z,998.6601
2024-05-09T03:18:02.492Z,998.7595
2024-05-09T03:19:02.443Z,998.9156
2024-05-09T03:20:01.384Z,998.717
2024-05-09T03:21:01.526Z,998.646
2024-05-09T03:22:01.560Z,998.7026
2024-05-09T03:23:01.748Z,998.7878
2024-05-09T03:24:01.764Z,998.5466
2024-05-09T03:25:01.866Z,998.7169
2024-05-09T03:26:01.988Z,998.6248
2024-05-09T03:27:02.030Z,998.8305
2024-05-09T03:28:02.160Z,998.5821
2024-05-09T03:29:02.979Z,998.6389
2024-05-09T03:30:01.374Z,998.802
2024-05-09T03:31:01.451Z,998.7169
2024-05-09T03:32:03.349Z,998.9226
2024-05-09T03:33:03.480Z,998.7737
2024-05-09T03:34:01.968Z,998.7879
2024-05-09T03:35:03.564Z,998.6034
2024-05-09T03:36:04.591Z,998.7311
2024-05-09T03:37:02.120Z,998.6743
2024-05-09T03:38:03.993Z,998.7879
2024-05-09T03:39:02.920Z,998.7383
2024-05-09T03:40:03.088Z,998.6744
2024-05-09T03:41:01.540Z,998.7879
2024-05-09T03:42:01.630Z,998.6815
2024-05-09T03:43:03.344Z,998.7595
2024-05-09T03:44:01.881Z,998.5752
2024-05-09T03:45:01.919Z,998.6178
2024-05-09T03:46:03.658Z,998.6746
2024-05-09T03:47:02.233Z,998.8164
2024-05-09T03:49:03.077Z,998.7599
2024-05-09T03:50:01.505Z,998.6466
2024-05-09T03:51:01.579Z,998.6252
2024-05-09T03:52:01.726Z,998.5898
2024-05-09T03:53:03.537Z,998.7953
2024-05-09T03:54:03.479Z,998.7953
2024-05-09T03:55:03.615Z,998.5894
2024-05-09T03:56:02.110Z,998.7597
2024-05-09T03:57:02.200Z,998.7313
2024-05-09T03:58:01.307Z,998.8448
2024-05-09T03:59:01.400Z,998.6746
2024-05-09T04:00:01.490Z,998.8733
2024-05-09T04:01:01.740Z,998.8308
2024-05-09T04:02:01.780Z,998.6108
2024-05-09T04:03:02.201Z,998.6463
2024-05-09T04:04:01.917Z,998.7597
2024-05-09T04:05:03.754Z,998.5825
2024-05-09T04:06:03.828Z,998.5896
2024-05-09T04:07:02.229Z,999.0151
2024-05-09T04:08:01.575Z,998.7597
2024-05-09T04:09:03.064Z,998.6746
2024-05-09T04:10:01.509Z,998.6887
2024-05-09T04:11:01.778Z,998.6957
2024-05-09T04:12:01.922Z,998.6319
2024-05-09T04:13:02.021Z,998.8164
2024-05-09T04:14:02.031Z,998.8873
2024-05-09T04:15:03.637Z,998.6815
2024-05-09T04:16:03.748Z,998.724
2024-05-09T04:17:03.878Z,998.8304
2024-05-09T04:18:02.332Z,998.9226
2024-05-09T04:19:03.120Z,998.7097
2024-05-09T04:20:03.255Z,998.7665
2024-05-09T04:21:01.783Z,998.7806
2024-05-09T04:22:03.355Z,998.8586
2024-05-09T04:23:03.561Z,998.9225
2024-05-09T04:24:01.923Z,998.7379
2024-05-09T04:25:02.021Z,998.7662
2024-05-09T04:26:02.196Z,998.8371
2024-05-09T04:27:03.872Z,998.908
2024-05-09T04:28:02.973Z,998.8299
2024-05-09T04:29:03.135Z,998.8158
2024-05-09T04:30:01.506Z,998.7022
2024-05-09T04:31:01.591Z,998.8512
2024-05-09T04:32:01.743Z,998.8939
2024-05-09T04:33:02.015Z,998.9223
2024-05-09T04:34:04.012Z,998.8371
2024-05-09T04:35:03.818Z,999.0216
2024-05-09T04:36:02.114Z,998.9435
2024-05-09T04:37:02.244Z,999.0002
2024-05-09T04:38:02.991Z,998.9575
2024-05-09T04:39:01.415Z,999.064
2024-05-09T04:40:01.553Z,999.1137
2024-05-09T04:41:03.348Z,998.9716
2024-05-09T04:42:03.350Z,998.8437
2024-05-09T04:43:01.842Z,999.0284
2024-05-09T04:44:02.069Z,998.9786
2024-05-09T04:45:02.018Z,998.872
2024-05-09T04:46:02.155Z,999.014
2024-05-09T04:47:03.920Z,998.9003
2024-05-09T04:48:03.493Z,998.8647
2024-05-09T04:49:03.178Z,998.8574
2024-05-09T04:50:03.599Z,998.8716
2024-05-09T04:51:03.508Z,998.9213
2024-05-09T04:52:01.726Z,999.1273
2024-05-09T04:53:01.885Z,998.9567
2024-05-09T04:54:01.924Z,999.0705
2024-05-09T04:55:02.068Z,998.9709
2024-05-09T04:56:03.798Z,998.9424
2024-05-09T04:57:03.895Z,998.9992
2024-05-09T04:58:01.356Z,999.0916
2024-05-09T04:59:01.532Z,999.1128
2024-05-09T05:00:01.663Z,999.0346
2024-05-09T05:01:01.707Z,998.9279
2024-05-09T05:02:03.569Z,999.07
2024-05-09T05:03:02.071Z,999.0416
2024-05-09T05:04:02.160Z,999.0273
2024-05-09T05:05:02.273Z,999.077
2024-05-09T05:06:02.395Z,999.0128
2024-05-09T05:07:03.166Z,998.899
2024-05-09T05:08:01.514Z,998.9345
2024-05-09T05:09:01.499Z,998.8491
2024-05-09T05:10:04.501Z,998.7922
2024-05-09T05:11:01.830Z,999.0128
2024-05-09T05:12:01.944Z,999.0769
2024-05-09T05:13:01.904Z,999.1195
2024-05-09T05:14:03.721Z,999.1337
2024-05-09T05:15:02.089Z,998.9771
2024-05-09T05:16:02.214Z,999.0624
2024-05-09T05:17:03.034Z,998.9627
2024-05-09T05:18:01.553Z,999.1334
2024-05-09T05:19:03.311Z,999.233
2024-05-09T05:20:03.597Z,999.2258
2024-05-09T05:21:03.396Z,999.1118
2024-05-09T05:22:01.856Z,999.2186
2024-05-09T05:23:02.033Z,999.1047
2024-05-09T05:24:03.648Z,999.0477
2024-05-09T05:25:02.142Z,999.0262
2024-05-09T05:26:02.303Z,999.09
2024-05-09T05:27:01.314Z,999.0755
2024-05-09T05:28:01.427Z,999.061
2024-05-09T05:29:01.584Z,999.1894
2024-05-09T05:30:01.685Z,999.1253
2024-05-09T05:31:01.735Z,999.1325
2024-05-09T05:32:01.904Z,999.0754
2024-05-09T05:33:03.621Z,998.997
2024-05-09T05:34:03.709Z,999.061
2024-05-09T05:35:03.825Z,998.9325
2024-05-09T05:36:02.246Z,999.0251
2024-05-09T05:37:03.134Z,999.0893
2024-05-09T05:38:01.622Z,999.1749
2024-05-09T05:39:03.208Z,999.0178
2024-05-09T05:40:01.663Z,998.8751
2024-05-09T05:41:03.431Z,999.2819
2024-05-09T05:42:01.861Z,999.1676
2024-05-09T05:43:03.584Z,998.9393
2024-05-09T05:44:03.781Z,998.8321
2024-05-09T05:45:02.189Z,998.8748
2024-05-09T05:46:01.251Z,999.0031
2024-05-09T05:47:01.493Z,998.946
2024-05-09T05:48:01.774Z,999.1673
2024-05-09T05:49:01.680Z,999.01
2024-05-09T05:50:01.718Z,999.0812
2024-05-09T05:51:04.700Z,999.0881
2024-05-09T05:52:03.602Z,999.2381
2024-05-09T05:53:03.777Z,999.1165
2024-05-09T05:54:03.732Z,999.1522
2024-05-09T05:55:03.872Z,999.0451
2024-05-09T05:56:01.532Z,999.0952
2024-05-09T05:57:03.082Z,999.0881
2024-05-09T05:58:01.558Z,999.3598
2024-05-09T05:59:03.286Z,999.081
2024-05-09T06:00:01.790Z,999.0596
2024-05-09T06:01:01.846Z,999.0382
2024-05-09T06:02:01.958Z,999.2955
2024-05-09T06:03:03.787Z,999.0952
2024-05-09T06:04:03.846Z,998.9736
2024-05-09T06:05:02.338Z,999.2381
2024-05-09T06:06:01.368Z,999.0738
2024-05-09T06:07:01.452Z,999.1309
2024-05-09T06:08:03.283Z,999.1167
2024-05-09T06:09:03.284Z,999.1309
2024-05-09T06:10:05.238Z,999.1595
2024-05-09T06:11:02.000Z,999.1022
2024-05-09T06:12:03.735Z,999.2379
2024-05-09T06:13:03.646Z,999.2234
2024-05-09T06:14:02.232Z,999.5095
2024-05-09T06:15:02.291Z,999.2016
2024-05-09T06:16:03.052Z,999.3375
2024-05-09T06:17:03.073Z,999.3017
2024-05-09T06:18:03.346Z,999.23
2024-05-09T06:19:03.355Z,999.3374
2024-05-09T06:20:01.899Z,999.2084
2024-05-09T06:21:02.006Z,999.2442
2024-05-09T06:22:03.627Z,999.1581
2024-05-09T06:23:02.346Z,999.1366
2024-05-09T06:24:06.160Z,999.2082
2024-05-09T06:25:01.252Z,999.2583
2024-05-09T06:26:03.023Z,999.2295
2024-05-09T06:27:01.474Z,999.208
2024-05-09T06:28:01.699Z,999.2222
2024-05-09T06:29:01.730Z,999.3081
2024-05-09T06:30:03.869Z,999.2722
2024-05-09T06:31:01.895Z,999.3152
2024-05-09T06:32:03.757Z,999.1431
2024-05-09T06:33:02.243Z,999.1573
2024-05-09T06:34:04.041Z,999.1644
2024-05-09T06:35:01.309Z,999.2576
2024-05-09T06:36:03.059Z,999.3437
2024-05-09T06:37:01.504Z,999.2648
2024-05-09T06:38:02.013Z,999.2576
2024-05-09T06:39:01.665Z,999.2648
2024-05-09T06:40:01.764Z,999.1713
2024-05-09T06:41:01.983Z,999.1354
2024-05-09T06:42:02.019Z,999.2216
2024-05-09T06:43:02.096Z,999.1354
2024-05-09T06:44:03.876Z,999.3364
2024-05-09T06:45:01.299Z,999.2215
2024-05-09T06:46:01.406Z,999.3435
2024-05-09T06:47:01.579Z,999.2716
2024-05-09T06:48:01.738Z,999.1782
2024-05-09T06:49:01.941Z,999.1781
2024-05-09T06:50:01.794Z,999.1995
2024-05-09T06:51:03.581Z,999.1995
2024-05-09T06:52:01.970Z,999.2138
2024-05-09T06:53:02.373Z,999.2352
2024-05-09T06:54:02.168Z,999.1489
2024-05-09T06:55:02.934Z,999.1272
2024-05-09T06:56:01.460Z,999.1918
2024-05-09T06:57:01.500Z,999.1197
2024-05-09T06:58:01.635Z,999.3211
2024-05-09T06:59:03.354Z,999.2778
2024-05-09T07:00:01.808Z,999.285
2024-05-09T07:01:01.980Z,999.285
2024-05-09T07:02:03.694Z,999.3209
2024-05-09T07:03:05.470Z,999.2274
2024-05-09T07:04:04.235Z,999.2849
2024-05-09T07:05:03.030Z,999.3137
2024-05-09T07:06:01.518Z,999.544
2024-05-09T07:07:01.503Z,999.04
2024-05-09T07:08:03.397Z,999.1188
2024-05-09T07:09:01.736Z,999.2844
2024-05-09T07:10:01.845Z,999.1114
2024-05-09T07:11:03.630Z,999.0682
2024-05-09T07:12:02.152Z,999.1475
2024-05-09T07:13:02.121Z,999.0322
2024-05-09T07:14:02.326Z,999.0826
2024-05-09T07:15:01.352Z,999.1042
2024-05-09T07:16:03.117Z,999.0969
2024-05-09T07:17:01.619Z,999.0105
2024-05-09T07:18:03.582Z,999.1402
2024-05-09T07:19:01.868Z,999.1618
2024-05-09T07:20:01.899Z,999.14
2024-05-09T07:21:03.669Z,999.0678
2024-05-09T07:22:02.070Z,999.0822
2024-05-09T07:23:02.267Z,999.1615
2024-05-09T07:24:03.898Z,999.2118
2024-05-09T07:25:01.370Z,999.2983
2024-05-09T07:26:01.494Z,999.3848
2024-05-09T07:27:01.556Z,999.1322
2024-05-09T07:28:01.621Z,999.2693
2024-05-09T07:29:01.808Z,999.356
2024-05-09T07:30:02.211Z,999.1973
2024-05-09T07:31:03.612Z,999.2045
2024-05-09T07:32:02.243Z,999.3343
2024-05-09T07:33:03.035Z,999.3054
2024-05-09T07:34:01.409Z,999.2403
2024-05-09T07:35:03.079Z,999.1319
2024-05-09T07:36:03.163Z,999.0958
2024-05-09T07:37:01.576Z,999.1536
2024-05-09T07:38:01.720Z,999.1536
2024-05-09T07:39:01.795Z,999.2547
2024-05-09T07:40:01.898Z,999.1031
2024-05-09T07:41:02.116Z,998.9803
2024-05-09T07:42:02.121Z,999.0451
2024-05-09T07:43:02.216Z,999.1463
2024-05-09T07:44:01.401Z,999.0669
2024-05-09T07:45:20.963Z,999.1752
2024-05-09T07:46:51.896Z,998.973
2024-05-09T07:50:53.277Z,999.1894
2024-05-09T07:51:51.318Z,998.9801
2024-05-09T07:53:26.754Z,998.8573
2024-05-09T07:53:36.116Z,998.944
2024-05-09T07:54:03.647Z,998.9872
2024-05-09T07:55:01.698Z,998.9726
2024-05-09T07:56:03.447Z,998.9798
2024-05-09T07:57:01.864Z,999.0086
2024-05-09T07:58:01.928Z,999.0375
2024-05-09T07:59:03.491Z,998.9291
2024-05-09T08:00:04.503Z,998.9723
2024-05-09T08:01:02.270Z,998.929
2024-05-09T08:02:02.489Z,998.9145
2024-05-09T08:03:02.303Z,999.0445
2024-05-09T08:04:03.175Z,998.9214
2024-05-09T08:05:01.745Z,998.943
2024-05-09T08:06:03.188Z,998.9213
2024-05-09T08:07:03.335Z,998.7187
2024-05-09T08:08:03.387Z,998.834
2024-05-09T08:09:08.042Z,998.9785
2024-05-09T08:10:05.233Z,998.8915
2024-05-09T08:11:03.771Z,998.8407
2024-05-09T08:12:02.150Z,998.7536
2024-05-09T08:14:03.024Z,998.7466
2024-05-09T08:15:01.487Z,998.9491
2024-05-09T08:16:03.385Z,998.7754
2024-05-09T08:17:01.719Z,998.7026
2024-05-09T08:18:03.585Z,998.7892
2024-05-09T08:19:01.988Z,998.8326
2024-05-09T08:20:05.076Z,998.7673
2024-05-09T08:21:03.703Z,998.7745
2024-05-09T08:22:03.811Z,998.8614
2024-05-09T08:23:01.264Z,998.7381
2024-05-09T08:24:03.002Z,998.7233
2024-05-09T08:25:01.584Z,998.6867
2024-05-09T08:26:01.604Z,998.9114
2024-05-09T08:27:01.677Z,998.7517
2024-05-09T08:28:01.858Z,998.853
2024-05-09T08:29:01.890Z,998.9618
2024-05-09T08:30:03.994Z,998.8456
2024-05-09T08:31:06.066Z,999.0922
2024-05-09T08:32:02.210Z,998.8597
2024-05-09T08:33:01.364Z,998.7869
2024-05-09T08:34:03.199Z,998.7797
2024-05-09T08:35:03.145Z,998.8235
2024-05-09T08:36:03.292Z,998.7801
2024-05-09T08:37:12.845Z,998.9977
2024-05-09T08:38:03.682Z,998.896
2024-05-09T08:39:01.950Z,998.7288
2024-05-09T08:40:02.061Z,998.707
2024-05-09T08:41:02.117Z,998.6559
2024-05-09T08:42:03.868Z,998.6705
2024-05-09T08:43:01.428Z,998.7941
2024-05-09T08:44:01.477Z,998.6998
2024-05-09T08:45:03.214Z,998.6779
2024-05-09T08:46:03.335Z,998.6123
2024-05-09T08:47:03.439Z,998.7431
2024-05-09T08:48:03.539Z,998.8884
2024-05-09T08:49:02.240Z,998.6705
2024-05-09T08:50:02.106Z,998.7719
2024-05-09T08:51:02.179Z,998.7354
2024-05-09T08:52:04.041Z,998.8809
2024-05-09T08:53:03.031Z,998.7939
2024-05-09T08:54:01.446Z,998.8155
2024-05-09T08:55:03.315Z,998.7717
2024-05-09T08:56:01.659Z,998.8007
2024-05-09T08:57:03.369Z,998.6478
2024-05-09T08:58:03.683Z,998.7929
2024-05-09T08:59:01.926Z,998.8508
2024-05-09T09:00:06.252Z,998.7923
2024-05-09T09:01:02.203Z,998.7847
2024-05-09T09:02:02.444Z,998.8211
2024-05-09T09:03:03.030Z,998.7262
2024-05-09T09:04:01.726Z,998.6533
2024-05-09T09:05:03.295Z,998.6094
2024-05-09T09:06:01.694Z,998.6384
2024-05-09T09:07:03.714Z,998.6382
2024-05-09T09:08:03.475Z,998.6237
2024-05-09T09:09:03.571Z,998.7254
2024-05-09T09:10:02.063Z,998.6814
2024-05-09T09:11:03.785Z,998.7104
2024-05-09T09:12:03.951Z,998.6374
2024-05-09T09:13:03.161Z,998.6444
2024-05-09T09:14:01.473Z,998.6154
2024-05-09T09:15:01.563Z,998.98
2024-05-09T09:16:01.791Z,998.63
2024-05-09T09:17:03.384Z,998.6882
2024-05-09T09:18:03.717Z,998.7101
2024-05-09T09:19:03.788Z,998.688
2024-05-09T09:20:02.243Z,998.7097
2024-05-09T09:21:03.799Z,998.7314
2024-05-09T09:23:02.999Z,998.5786
2024-05-09T09:24:01.455Z,998.6076
2024-05-09T09:25:01.660Z,998.4616
2024-05-09T09:26:01.817Z,998.629
2024-05-09T09:27:03.396Z,998.5705
2024-05-09T09:28:01.899Z,998.5559
2024-05-09T09:29:01.999Z,998.877
2024-05-09T09:30:02.044Z,998.6655
2024-05-09T09:31:04.103Z,998.7163
2024-05-09T09:32:02.910Z,998.6577
2024-05-09T09:33:01.492Z,998.5261
2024-05-09T09:34:01.771Z,998.6065
2024-05-09T09:35:01.726Z,998.3949
2024-05-09T09:36:03.387Z,998.5626
2024-05-09T09:37:03.609Z,998.5845
2024-05-09T09:38:02.038Z,998.5481
2024-05-09T09:39:01.993Z,998.6356
2024-05-09T09:40:02.187Z,998.6793
2024-05-09T09:41:04.012Z,998.5477
2024-05-09T09:42:02.904Z,998.5255
2024-05-09T09:43:03.149Z,998.6496
2024-05-09T09:44:03.145Z,998.5475
2024-05-09T09:45:05.502Z,998.5109
2024-05-09T09:46:03.446Z,998.562
2024-05-09T09:47:01.840Z,998.4088
2024-05-09T09:48:02.022Z,998.562
2024-05-09T09:49:03.704Z,998.5472
2024-05-09T09:50:02.292Z,998.5911
2024-05-09T09:51:02.250Z,998.6132
2024-05-09T09:52:01.384Z,998.5694
2024-05-09T09:53:01.472Z,998.6499
2024-05-09T09:54:03.132Z,998.5476
2024-05-09T09:55:03.411Z,998.5842
2024-05-09T09:56:01.727Z,998.5768
2024-05-09T09:57:01.807Z,998.5619
2024-05-09T09:58:01.989Z,998.7153
2024-05-09T09:59:02.045Z,998.5689
2024-05-09T10:00:03.114Z,998.7441
2024-05-09T10:01:02.430Z,998.6563
2024-05-09T10:02:01.603Z,998.7293
2024-05-09T10:03:03.242Z,998.8389
2024-05-09T10:04:01.689Z,998.5903
2024-05-09T10:05:03.491Z,998.4659
2024-05-09T10:06:01.783Z,998.6195
2024-05-09T10:07:01.905Z,998.5828
2024-05-09T10:08:01.944Z,998.612
2024-05-09T10:09:03.708Z,998.7072
2024-05-09T10:10:02.593Z,998.5829
2024-05-09T10:11:04.200Z,998.5169
2024-05-09T10:12:03.072Z,998.6704
2024-05-09T10:13:03.204Z,998.619
2024-05-09T10:14:01.530Z,998.656
2024-05-09T10:15:03.291Z,998.7582
2024-05-09T10:16:01.814Z,998.5753
2024-05-09T10:17:03.485Z,998.641
2024-05-09T10:18:02.123Z,998.6412
2024-05-09T10:19:02.231Z,998.6995
2024-05-09T10:20:02.533Z,998.6189
2024-05-09T10:21:02.272Z,998.6849
2024-05-09T10:22:03.052Z,998.568
2024-05-09T10:23:03.103Z,998.4806
2024-05-09T10:24:01.549Z,998.6563
2024-05-09T10:25:04.698Z,998.7366
2024-05-09T10:26:03.768Z,998.729
2024-05-09T10:27:03.477Z,998.5608
2024-05-09T10:28:01.999Z,998.612
2024-05-09T10:29:03.736Z,998.5973
2024-05-09T10:30:05.120Z,998.5242
2024-05-09T10:31:02.353Z,998.5534
2024-05-09T10:32:01.360Z,998.6413
2024-05-09T10:33:03.269Z,998.6558
2024-05-09T10:34:01.751Z,998.7366
2024-05-09T10:35:01.929Z,998.5908
2024-05-09T10:36:01.748Z,998.5908
2024-05-09T10:37:04.196Z,998.62
2024-05-09T10:38:03.634Z,998.5616
2024-05-09T10:39:02.096Z,998.591
2024-05-09T10:40:02.566Z,998.4011
2024-05-09T10:41:01.310Z,998.5764
2024-05-09T10:42:01.383Z,998.5321
2024-05-09T10:43:05.758Z,998.5027
2024-05-09T10:44:03.253Z,998.4735
2024-05-09T10:45:03.323Z,998.8389
2024-05-09T10:46:01.784Z,998.3416
2024-05-09T10:47:03.566Z,998.4589
2024-05-09T10:48:02.248Z,998.4808
2024-05-09T10:49:07.163Z,998.4078
2024-05-09T10:50:07.799Z,998.4808
2024-05-09T10:51:02.935Z,998.371
2024-05-09T10:52:03.066Z,998.4516
2024-05-09T10:53:03.093Z,998.5102
2024-05-09T10:54:03.243Z,998.364
2024-05-09T10:55:05.627Z,998.4224
2024-05-09T10:56:03.423Z,998.4664
2024-05-09T10:57:03.516Z,998.3931
2024-05-09T10:58:02.011Z,998.3127
2024-05-09T10:59:03.729Z,998.4735
2024-05-09T11:00:02.183Z,998.3051
2024-05-09T11:01:04.337Z,998.3782
2024-05-09T11:02:01.484Z,998.3196
2024-05-09T11:03:03.215Z,998.2756
2024-05-09T11:04:03.536Z,998.378
2024-05-09T11:05:01.824Z,998.2904
2024-05-09T11:06:03.411Z,998.2348
2024-05-09T11:07:05.127Z,998.2495
2024-05-09T11:08:03.600Z,998.2762
2024-05-09T11:09:03.748Z,998.2693
2024-05-09T11:10:02.263Z,998.2626
2024-05-09T11:11:01.288Z,998.2989
2024-05-09T11:12:01.440Z,998.2575
2024-05-09T11:13:01.550Z,998.1841
2024-05-09T11:14:01.609Z,998.2571
2024-05-09T11:15:03.378Z,998.2618
2024-05-09T11:16:03.539Z,998.3934
2024-05-09T11:17:02.026Z,998.2133
2024-05-09T11:18:02.123Z,998.1173
2024-05-09T11:19:02.369Z,998.2497
2024-05-09T11:20:03.248Z,998.2618
2024-05-09T11:21:02.993Z,998.3862
2024-05-09T11:22:03.098Z,998.2353
2024-05-09T11:23:01.542Z,998.2056
2024-05-09T11:24:01.640Z,998.1833
2024-05-09T11:25:03.425Z,998.1386
2024-05-09T11:26:03.522Z,998.2487
2024-05-09T11:27:03.610Z,998.2678
2024-05-09T11:28:02.168Z,998.2043
2024-05-09T11:29:03.774Z,998.2481
2024-05-09T11:30:04.490Z,998.0425
2024-05-09T11:31:03.089Z,998.1083
2024-05-09T11:32:03.082Z,998.2337
2024-05-09T11:33:01.685Z,998.1166
2024-05-09T11:34:01.653Z,998.0001
2024-05-09T11:35:03.399Z,998.2125
2024-05-09T11:36:01.810Z,998.19
2024-05-09T11:37:03.669Z,998.0281
2024-05-09T11:38:02.090Z,998.1821
2024-05-09T11:39:02.146Z,998.0281
2024-05-09T11:40:03.337Z,997.9994
2024-05-09T11:41:01.372Z,997.9334
2024-05-09T11:42:01.453Z,998.0281
2024-05-09T11:43:01.784Z,998.0866
2024-05-09T11:44:03.286Z,998.0865
2024-05-09T11:45:01.724Z,998.108
2024-05-09T11:46:04.181Z,998.226
2024-05-09T11:47:01.956Z,998.2187
2024-05-09T11:48:02.361Z,997.94
2024-05-09T11:49:02.381Z,998.1086
2024-05-09T11:50:04.360Z,998.0357
2024-05-09T11:51:01.411Z,997.9847
2024-05-09T11:52:01.524Z,998.0063
2024-05-09T11:53:01.573Z,997.8893